Time;durP1;ratioP1;P1;durP2;ratioP2;P2;SDS_P1;SDS_P2;PMS_P1;PMS_P2;Temp;Humidity;BMP_temperature;BMP_pressure;BME280_temperature;BME280_humidity;BME280_pressure;Samples;Min_cycle;Max_cycle;Signal;HPM_P1;HPM_P2
2024/01/21 00:01:24;;;;;;;10.85;4.60;;;;;;;-5.41;59.65;93945.69;2048087;70;20151;-80
2024/01/21 00:03:50;;;;;;;11.93;4.57;;;;;;;-5.19;59.16;93961.72;2048040;70;20169;-77
2024/01/21 00:06:16;;;;;;;7.70;3.45;;;;;;;-5.11;58.79;93951.88;2048096;70;20151;-80
2024/01/21 00:08:41;;;;;;;8.18;3.85;;;;;;;-5.12;58.35;93937.38;2047117;70;20158;-79
2024/01/21 00:11:07;;;;;;;12.93;3.53;;;;;;;-5.16;57.32;93938.81;2048038;70;20218;-77
2024/01/21 00:13:34;;;;;;;8.00;3.53;;;;;;;-5.06;57.58;93934.72;2044486;70;20158;-79
2024/01/21 00:15:59;;;;;;;7.53;3.42;;;;;;;-5.22;58.05;93921.53;2047790;70;20151;-82
2024/01/21 00:18:26;;;;;;;7.15;3.17;;;;;;;-5.04;57.82;93926.75;2047424;70;20131;-81
2024/01/21 00:20:52;;;;;;;6.28;3.15;;;;;;;-5.02;57.67;93927.03;2048376;70;20264;-82
2024/01/21 00:23:18;;;;;;;8.13;2.83;;;;;;;-4.98;56.73;93933.06;2047658;70;20239;-82
2024/01/21 00:25:44;;;;;;;6.63;2.80;;;;;;;-5.00;56.83;93930.03;2048076;70;20153;-80
2024/01/21 00:28:09;;;;;;;5.78;2.88;;;;;;;-5.06;57.30;93931.97;2047459;70;20143;-78
2024/01/21 00:30:35;;;;;;;7.57;3.08;;;;;;;-4.98;57.43;93932.31;2047971;70;20161;-81
2024/01/21 00:33:01;;;;;;;6.90;3.28;;;;;;;-5.06;57.33;93917.47;2047998;70;20154;-79
2024/01/21 00:35:27;;;;;;;7.38;2.75;;;;;;;-5.04;58.33;93915.78;2047778;70;20145;-80
2024/01/21 00:37:52;;;;;;;7.00;2.90;;;;;;;-5.19;58.28;93917.81;2048026;70;20143;-78
2024/01/21 00:40:18;;;;;;;5.65;2.92;;;;;;;-5.16;58.59;93906.63;2048254;70;20248;-83
2024/01/21 00:42:44;;;;;;;4.97;2.67;;;;;;;-5.06;57.40;93890.75;2047753;70;20602;-82
2024/01/21 00:45:10;;;;;;;5.80;2.22;;;;;;;-4.96;57.48;93899.63;2047367;70;20162;-81
2024/01/21 00:47:36;;;;;;;4.90;2.53;;;;;;;-5.01;57.36;93900.31;2047789;70;20238;-79
2024/01/21 00:50:03;;;;;;;6.95;3.22;;;;;;;-5.12;56.91;93906.44;2047365;70;20740;-79
2024/01/21 00:52:28;;;;;;;9.15;3.42;;;;;;;-5.13;57.50;93919.41;2047461;70;20142;-80
2024/01/21 00:54:54;;;;;;;8.70;4.30;;;;;;;-5.22;57.00;93916.78;2048275;70;20149;-79
2024/01/21 00:57:20;;;;;;;6.07;2.90;;;;;;;-5.04;56.94;93907.53;2048104;70;20621;-79
2024/01/21 00:59:45;;;;;;;9.55;3.58;;;;;;;-5.33;57.41;93907.63;2047878;70;20162;-79
2024/01/21 01:02:12;;;;;;;8.30;3.97;;;;;;;-5.07;56.98;93899.50;2048275;70;20267;-76
2024/01/21 01:04:38;;;;;;;10.07;3.67;;;;;;;-5.24;57.03;93877.31;2044517;70;20135;-79
2024/01/21 01:07:04;;;;;;;10.05;3.75;;;;;;;-5.14;56.93;93906.88;2047494;70;20138;-76
2024/01/21 01:09:30;;;;;;;9.20;4.00;;;;;;;-5.09;56.97;93905.44;2048071;70;20626;-77
2024/01/21 01:11:56;;;;;;;10.82;3.85;;;;;;;-5.06;57.24;93901.75;2044693;70;20579;-76
2024/01/21 01:14:21;;;;;;;8.80;3.88;;;;;;;-5.20;57.14;93908.81;2048060;70;20233;-76
2024/01/21 01:16:47;;;;;;;7.28;3.25;;;;;;;-5.17;57.69;93909.84;2047303;70;20173;-78
2024/01/21 01:19:12;;;;;;;6.43;3.00;;;;;;;-5.24;58.79;93911.00;2048788;70;20146;-76
2024/01/21 01:21:38;;;;;;;5.40;2.67;;;;;;;-5.31;58.47;93914.16;2051784;70;20165;-75
2024/01/21 01:24:04;;;;;;;5.43;2.90;;;;;;;-5.37;58.45;93916.81;2048735;70;20166;-75
2024/01/21 01:26:30;;;;;;;6.43;2.90;;;;;;;-5.39;58.33;93915.81;2048161;70;20151;-80
2024/01/21 01:28:56;;;;;;;6.40;3.28;;;;;;;-5.23;58.49;93906.25;2048258;70;20154;-81
2024/01/21 01:31:21;;;;;;;5.28;3.13;;;;;;;-5.24;58.16;93902.00;2048163;70;20166;-76
2024/01/21 01:33:47;;;;;;;8.57;3.25;;;;;;;-5.29;57.81;93900.72;2047966;70;20563;-76
2024/01/21 01:36:13;;;;;;;7.22;3.13;;;;;;;-5.21;58.17;93904.56;2048048;70;20149;-75
2024/01/21 01:38:39;;;;;;;5.40;3.10;;;;;;;-5.25;58.50;93912.25;2048051;70;20268;-75
2024/01/21 01:41:05;;;;;;;6.15;3.03;;;;;;;-5.32;59.22;93911.88;2044600;70;20139;-77
2024/01/21 01:43:30;;;;;;;6.35;2.40;;;;;;;-5.24;58.75;93902.75;2047269;70;20225;-75
2024/01/21 01:46:00;;;;;;;4.68;2.00;;;;;;;-5.22;57.98;93905.81;2047835;70;20142;-80
2024/01/21 01:48:30;;;;;;;5.80;3.03;;;;;;;-5.30;58.95;93903.94;2047734;70;20151;-80
2024/01/21 01:50:59;;;;;;;6.65;3.10;;;;;;;-5.42;58.10;93905.75;2047346;70;20154;-81
2024/01/21 01:53:29;;;;;;;6.47;2.78;;;;;;;-5.27;58.47;93903.72;2047574;70;20197;-80
2024/01/21 01:55:55;;;;;;;7.22;2.85;;;;;;;-5.40;59.30;93897.81;2044548;70;20515;-79
2024/01/21 01:58:27;;;;;;;6.18;2.35;;;;;;;-5.28;57.76;93898.72;2044157;70;20146;-81
2024/01/21 02:00:53;;;;;;;9.15;2.28;;;;;;;-5.15;57.65;93899.88;2044428;70;20198;-78
2024/01/21 02:03:19;;;;;;;4.85;2.08;;;;;;;-5.17;57.38;93898.88;2047932;70;20777;-81
2024/01/21 02:05:45;;;;;;;4.45;1.88;;;;;;;-5.26;57.29;93899.75;2047987;70;20630;-81
2024/01/21 02:08:12;;;;;;;3.05;1.80;;;;;;;-5.08;57.69;93901.50;2047246;70;20159;-78
2024/01/21 02:10:38;;;;;;;3.38;1.90;;;;;;;-5.22;57.16;93894.06;2047761;70;20254;-82
2024/01/21 02:13:03;;;;;;;3.67;1.83;;;;;;;-5.01;57.49;93883.81;2047542;70;20166;-76
2024/01/21 02:15:29;;;;;;;3.63;1.70;;;;;;;-5.02;57.16;93885.06;2048058;70;20526;-78
2024/01/21 02:17:55;;;;;;;5.05;1.55;;;;;;;-5.00;56.40;93883.34;2047607;70;20150;-81
2024/01/21 02:20:21;;;;;;;4.07;2.08;;;;;;;-4.94;56.58;93883.44;2047836;70;20147;-80
2024/01/21 02:22:47;;;;;;;4.90;2.08;;;;;;;-4.95;56.13;93890.13;2047320;70;20234;-80
2024/01/21 02:25:12;;;;;;;5.65;2.15;;;;;;;-5.08;55.95;93881.50;2047143;70;20142;-81
2024/01/21 02:27:38;;;;;;;5.07;2.30;;;;;;;-4.96;56.30;93883.88;2047175;70;20149;-80
2024/01/21 02:30:05;;;;;;;4.90;1.90;;;;;;;-5.21;56.18;93868.88;2047538;70;20229;-79
2024/01/21 02:32:31;;;;;;;3.60;2.00;;;;;;;-5.30;56.41;93882.72;2047848;70;20154;-81
2024/01/21 02:34:56;;;;;;;4.80;2.08;;;;;;;-5.13;56.58;93886.44;2047648;70;20167;-83
2024/01/21 02:37:22;;;;;;;4.50;2.38;;;;;;;-5.31;56.04;93886.72;2047302;70;20992;-81
2024/01/21 02:39:48;;;;;;;4.72;2.13;;;;;;;-5.30;55.96;93895.72;2047106;70;20135;-78
2024/01/21 02:42:13;;;;;;;3.85;2.00;;;;;;;-5.45;56.12;93860.84;2046924;70;20619;-79
2024/01/21 02:44:39;;;;;;;4.15;2.00;;;;;;;-4.98;56.01;93896.59;2041056;70;20527;-77
2024/01/21 02:47:04;;;;;;;2.92;1.52;;;;;;;-4.84;55.80;93889.53;2043653;70;20147;-82
2024/01/21 02:49:30;;;;;;;4.28;2.10;;;;;;;-4.99;56.48;93882.13;2046818;70;20230;-81
2024/01/21 02:51:56;;;;;;;5.50;2.10;;;;;;;-4.99;55.47;93865.66;2047031;70;20146;-81
2024/01/21 02:54:23;;;;;;;3.25;1.90;;;;;;;-5.12;56.71;93871.47;2047466;70;20174;-83
2024/01/21 02:56:48;;;;;;;3.78;2.00;;;;;;;-5.21;56.14;93874.38;2046910;70;20233;-82
2024/01/21 02:59:14;;;;;;;6.13;2.20;;;;;;;-5.24;56.42;93867.06;2046958;70;20154;-81
2024/01/21 03:01:40;;;;;;;3.67;2.10;;;;;;;-5.48;56.76;93867.28;2047559;70;20169;-82
2024/01/21 03:04:06;;;;;;;4.55;1.75;;;;;;;-5.09;56.26;93871.75;2047345;70;20158;-84
2024/01/21 03:06:32;;;;;;;2.88;1.30;;;;;;;-5.08;55.78;93840.31;2047778;70;20631;-80
2024/01/21 03:08:58;;;;;;;3.33;1.70;;;;;;;-4.74;55.30;93874.41;2048327;70;20179;-82
2024/01/21 03:11:23;;;;;;;4.40;1.50;;;;;;;-4.88;55.96;93868.50;2047870;70;20275;-78
2024/01/21 03:13:49;;;;;;;2.45;1.40;;;;;;;-4.87;55.97;93886.50;2045920;70;20154;-78
2024/01/21 03:16:15;;;;;;;2.65;1.30;;;;;;;-4.79;56.02;93872.34;2044838;70;20527;-80
2024/01/21 03:18:40;;;;;;;3.00;1.60;;;;;;;-5.05;55.59;93870.28;2045403;70;20179;-78
2024/01/21 03:21:09;;;;;;;3.53;1.60;;;;;;;-4.80;55.39;93879.84;2044963;70;20147;-77
2024/01/21 03:23:34;;;;;;;3.15;1.65;;;;;;;-4.75;55.09;93870.16;2045112;70;20162;-78
2024/01/21 03:26:00;;;;;;;1.92;1.40;;;;;;;-4.94;55.49;93875.94;2044845;70;20143;-78
2024/01/21 03:28:26;;;;;;;3.88;2.05;;;;;;;-4.71;55.52;93876.19;2044027;70;20217;-82
2024/01/21 03:30:52;;;;;;;5.15;2.30;;;;;;;-4.72;55.13;93874.66;2044435;70;20225;-83
2024/01/21 03:33:17;;;;;;;7.65;2.22;;;;;;;-5.10;56.00;93860.00;2044867;70;20512;-82
2024/01/21 03:35:43;;;;;;;5.88;2.20;;;;;;;-4.94;56.16;93864.19;2044313;70;20163;-80
2024/01/21 03:38:09;;;;;;;5.13;2.25;;;;;;;-4.90;56.64;93864.75;2044882;70;20249;-83
2024/01/21 03:40:34;;;;;;;5.00;1.70;;;;;;;-4.83;56.55;93866.31;2043973;70;20155;-82
2024/01/21 03:43:00;;;;;;;3.92;1.75;;;;;;;-4.84;56.14;93856.56;2044894;70;20272;-78
2024/01/21 03:45:26;;;;;;;3.13;1.80;;;;;;;-4.72;55.82;93864.44;2044009;70;20155;-78
2024/01/21 03:47:51;;;;;;;2.78;1.52;;;;;;;-4.73;55.47;93873.91;2044572;70;20547;-80
2024/01/21 03:50:20;;;;;;;2.65;1.48;;;;;;;-4.70;55.15;93885.94;2045173;70;20151;-78
2024/01/21 03:52:47;;;;;;;2.63;1.50;;;;;;;-4.71;55.87;93885.19;2045015;70;20154;-78
2024/01/21 03:55:14;;;;;;;3.72;1.98;;;;;;;-4.63;55.83;93880.00;2044818;70;20173;-80
2024/01/21 03:57:40;;;;;;;2.33;1.30;;;;;;;-4.68;55.46;93880.69;2041699;70;20147;-80
2024/01/21 04:00:08;;;;;;;1.98;1.30;;;;;;;-4.60;55.83;93865.31;2045060;70;20154;-79
2024/01/21 04:02:37;;;;;;;2.67;1.30;;;;;;;-4.68;55.29;93866.97;2044539;70;20183;-78
2024/01/21 04:05:03;;;;;;;2.63;1.30;;;;;;;-4.68;55.72;93861.47;2044320;70;20359;-81
2024/01/21 04:07:30;;;;;;;2.45;1.33;;;;;;;-4.76;56.81;93865.91;2044653;70;20543;-81
2024/01/21 04:09:56;;;;;;;4.60;2.00;;;;;;;-5.01;56.71;93868.09;2044467;70;20155;-82
2024/01/21 04:12:21;;;;;;;4.57;1.55;;;;;;;-4.91;56.87;93866.72;2044823;70;20154;-82
2024/01/21 04:14:47;;;;;;;3.53;1.60;;;;;;;-5.06;55.36;93832.34;2045004;70;20145;-82
2024/01/21 04:17:13;;;;;;;2.17;1.40;;;;;;;-4.70;56.19;93867.44;2044974;70;20139;-78
2024/01/21 04:19:38;;;;;;;3.35;1.20;;;;;;;-4.67;55.87;93865.75;2045164;70;20166;-80
2024/01/21 04:22:04;;;;;;;2.80;1.23;;;;;;;-4.61;55.25;93859.06;2044808;70;20143;-78
2024/01/21 04:24:30;;;;;;;3.17;1.10;;;;;;;-4.77;55.57;93856.13;2044424;70;20167;-78
2024/01/21 04:26:56;;;;;;;4.00;1.30;;;;;;;-4.85;55.92;93866.78;2044865;70;20234;-80
2024/01/21 04:29:22;;;;;;;2.67;1.40;;;;;;;-4.74;55.41;93855.16;2045093;70;20201;-79
2024/01/21 04:31:47;;;;;;;3.17;1.52;;;;;;;-4.61;55.54;93853.56;2044939;70;20159;-79
2024/01/21 04:34:13;;;;;;;2.72;1.30;;;;;;;-4.60;55.34;93852.31;2044781;70;20150;-78
2024/01/21 04:36:39;;;;;;;4.10;1.33;;;;;;;-4.60;55.81;93846.81;2044413;70;20241;-79
2024/01/21 04:39:06;;;;;;;2.10;1.33;;;;;;;-4.84;56.27;93851.06;2044880;70;20147;-77
2024/01/21 04:41:32;;;;;;;3.97;1.63;;;;;;;-4.92;55.95;93848.72;2044831;70;20668;-77
2024/01/21 04:43:58;;;;;;;2.78;1.52;;;;;;;-4.81;55.67;93839.88;2044815;70;20592;-78
2024/01/21 04:46:24;;;;;;;4.63;3.00;;;;;;;-4.67;55.19;93836.25;2044864;70;20148;-79
2024/01/21 04:48:49;;;;;;;5.63;3.30;;;;;;;-4.54;55.21;93832.38;2045059;70;20205;-80
2024/01/21 04:51:16;;;;;;;2.85;2.00;;;;;;;-4.56;55.40;93845.84;2044865;70;20142;-77
2024/01/21 04:53:43;;;;;;;3.53;1.48;;;;;;;-4.57;55.58;93842.34;2044606;70;20189;-78
2024/01/21 04:56:16;;;;;;;2.58;1.30;;;;;;;-4.53;55.30;93844.88;2048199;70;20143;-77
2024/01/21 04:58:43;;;;;;;2.70;1.60;;;;;;;-4.61;55.29;93855.56;2046062;70;20578;-78
2024/01/21 05:01:09;;;;;;;3.53;1.83;;;;;;;-4.51;55.13;93853.41;2044609;70;20520;-77
2024/01/21 05:03:35;;;;;;;2.38;1.48;;;;;;;-4.58;56.10;93857.34;2045194;70;20500;-78
2024/01/21 05:06:00;;;;;;;3.65;1.60;;;;;;;-4.60;55.49;93846.06;2044994;70;20154;-80
2024/01/21 05:08:26;;;;;;;2.47;1.40;;;;;;;-4.50;55.81;93849.41;2044478;70;20186;-80
2024/01/21 05:10:51;;;;;;;6.28;1.60;;;;;;;-4.73;55.26;93834.69;2045133;70;20171;-80
2024/01/21 05:13:18;;;;;;;3.63;1.60;;;;;;;-4.62;55.89;93854.81;2044498;70;20173;-81
2024/01/21 05:15:44;;;;;;;3.85;1.67;;;;;;;-4.61;55.67;93845.31;2045003;70;20527;-82
2024/01/21 05:18:10;;;;;;;4.07;1.42;;;;;;;-4.81;56.39;93850.84;2045024;70;20151;-82
2024/01/21 05:20:35;;;;;;;1.98;1.30;;;;;;;-4.88;56.59;93846.53;2045130;70;20552;-82
2024/01/21 05:23:01;;;;;;;4.20;1.70;;;;;;;-4.72;55.77;93847.19;2044921;70;20138;-79
2024/01/21 05:25:27;;;;;;;5.45;1.33;;;;;;;-4.69;56.06;93851.72;2044958;70;20218;-79
2024/01/21 05:27:53;;;;;;;2.20;1.35;;;;;;;-4.56;55.95;93851.34;2044812;70;20228;-81
2024/01/21 05:30:19;;;;;;;2.72;1.40;;;;;;;-4.60;56.25;93846.81;2044910;70;20158;-81
2024/01/21 05:32:46;;;;;;;2.15;1.30;;;;;;;-4.45;55.67;93851.44;2047015;70;20155;-79
2024/01/21 05:35:14;;;;;;;2.42;1.15;;;;;;;-4.50;55.24;93857.66;2044900;70;20229;-77
2024/01/21 05:37:40;;;;;;;5.65;1.80;;;;;;;-4.57;55.79;93850.59;2044840;70;20241;-79
2024/01/21 05:40:06;;;;;;;3.45;1.60;;;;;;;-4.55;55.69;93845.34;2044276;70;20604;-78
2024/01/21 05:42:32;;;;;;;5.00;1.55;;;;;;;-4.47;55.99;93856.69;2044714;70;20175;-81
2024/01/21 05:44:58;;;;;;;8.43;4.00;;;;;;;-4.57;56.08;93861.59;2044754;70;20165;-82
2024/01/21 05:47:24;;;;;;;3.15;2.22;;;;;;;-4.41;55.61;93858.22;2044410;70;20238;-81
2024/01/21 05:49:49;;;;;;;4.75;1.67;;;;;;;-4.38;55.91;93851.78;2044858;70;20255;-81
2024/01/21 05:52:15;;;;;;;4.80;1.77;;;;;;;-4.41;55.87;93857.47;2044818;70;20173;-81
2024/01/21 05:54:41;;;;;;;5.38;1.92;;;;;;;-4.31;55.31;93863.56;2044842;70;20595;-81
2024/01/21 05:57:09;;;;;;;3.13;1.92;;;;;;;-4.47;55.67;93862.19;2044146;70;20531;-77
2024/01/21 05:59:34;;;;;;;4.43;1.90;;;;;;;-4.37;55.40;93863.53;2044862;70;20193;-80
2024/01/21 06:02:00;;;;;;;4.22;2.05;;;;;;;-4.33;55.25;93877.06;2044880;70;20578;-78
2024/01/21 06:04:25;;;;;;;20.38;7.85;;;;;;;-4.56;55.86;93870.59;2044145;70;20177;-78
2024/01/21 06:06:52;;;;;;;11.65;4.20;;;;;;;-4.43;56.05;93871.72;2044817;70;20154;-77
2024/01/21 06:09:17;;;;;;;4.07;2.15;;;;;;;-4.45;56.44;93878.94;2044891;70;20139;-78
2024/01/21 06:11:46;;;;;;;3.72;1.83;;;;;;;-4.44;56.35;93872.97;2044107;70;20174;-79
2024/01/21 06:14:12;;;;;;;4.72;2.35;;;;;;;-4.48;55.98;93877.91;2044903;70;20186;-80
2024/01/21 06:16:37;;;;;;;3.63;2.00;;;;;;;-4.50;55.51;93876.88;2044176;70;20186;-81
2024/01/21 06:19:04;;;;;;;5.80;2.15;;;;;;;-4.40;55.55;93886.47;2044623;70;20159;-85
2024/01/21 06:21:30;;;;;;;5.70;3.20;;;;;;;-4.54;56.16;93870.84;2044453;70;20584;-84
2024/01/21 06:23:56;;;;;;;5.13;2.05;;;;;;;-4.62;56.18;93879.53;2044979;70;20240;-82
2024/01/21 06:26:22;;;;;;;5.82;2.70;;;;;;;-4.65;56.33;93872.25;2044777;70;20155;-84
2024/01/21 06:28:49;;;;;;;4.85;2.40;;;;;;;-4.41;55.91;93876.72;2044838;70;20162;-78
2024/01/21 06:31:15;;;;;;;3.70;1.95;;;;;;;-4.37;56.14;93883.53;2044173;70;20154;-77
2024/01/21 06:33:41;;;;;;;4.35;1.80;;;;;;;-4.43;55.81;93884.72;2044787;70;20520;-78
2024/01/21 06:36:07;;;;;;;3.30;1.75;;;;;;;-4.40;55.76;93881.75;2044876;70;20158;-80
2024/01/21 06:38:33;;;;;;;4.05;1.58;;;;;;;-4.27;56.03;93886.09;2045009;70;20162;-80
2024/01/21 06:40:58;;;;;;;3.38;1.60;;;;;;;-4.43;56.77;93888.22;2046943;70;20163;-76
2024/01/21 06:43:24;;;;;;;2.80;1.98;;;;;;;-4.39;56.41;93886.00;2047871;70;20231;-77
2024/01/21 06:45:51;;;;;;;3.00;1.63;;;;;;;-4.56;57.38;93870.59;2046206;70;20139;-78
2024/01/21 06:48:17;;;;;;;5.25;2.42;;;;;;;-4.42;56.44;93886.97;2045945;70;20217;-77
2024/01/21 06:50:43;;;;;;;2.95;1.88;;;;;;;-4.35;56.22;93896.81;2045892;70;20170;-84
2024/01/21 06:53:09;;;;;;;2.65;1.73;;;;;;;-4.19;55.68;93896.19;2045930;70;20214;-83
2024/01/21 06:55:34;;;;;;;2.85;1.65;;;;;;;-4.18;55.54;93894.94;2045240;70;20526;-85
2024/01/21 06:58:00;;;;;;;3.17;1.98;;;;;;;-4.24;56.18;93907.13;2048479;70;20143;-82
2024/01/21 07:00:25;;;;;;;9.60;1.98;;;;;;;-4.20;56.25;93905.69;2052326;69;20151;-78
2024/01/21 07:02:51;;;;;;;4.07;2.15;;;;;;;-4.17;56.74;93903.94;2052458;69;20152;-79
2024/01/21 07:05:16;;;;;;;6.68;3.40;;;;;;;-4.41;56.85;93902.22;2052318;69;20137;-74
2024/01/21 07:07:42;;;;;;;6.15;2.40;;;;;;;-4.16;56.73;93908.97;2052313;69;20174;-76
2024/01/21 07:10:08;;;;;;;5.00;2.65;;;;;;;-4.46;56.41;93902.16;2052289;70;20154;-75
2024/01/21 07:12:33;;;;;;;7.25;3.15;;;;;;;-4.26;56.59;93910.38;2052140;70;20150;-75
2024/01/21 07:14:59;;;;;;;8.85;3.70;;;;;;;-4.14;55.81;93911.97;2052176;69;20165;-75
2024/01/21 07:17:24;;;;;;;9.45;4.70;;;;;;;-4.37;56.03;93915.75;2052270;69;20146;-77
2024/01/21 07:19:52;;;;;;;8.95;3.03;;;;;;;-4.23;56.27;93925.13;2051908;70;20161;-76
2024/01/21 07:22:21;;;;;;;7.13;3.42;;;;;;;-4.27;56.20;93903.34;2051924;70;20146;-78
2024/01/21 07:24:46;;;;;;;6.80;3.53;;;;;;;-4.23;55.84;93920.41;2052289;69;20146;-77
2024/01/21 07:27:12;;;;;;;13.55;3.80;;;;;;;-4.42;56.37;93911.72;2051778;70;20197;-85
2024/01/21 07:29:38;;;;;;;5.68;3.13;;;;;;;-4.20;57.26;93918.69;2047754;70;20302;-84
2024/01/21 07:32:05;;;;;;;6.47;2.42;;;;;;;-4.03;56.29;93924.31;2047334;70;20187;-82
2024/01/21 07:34:31;;;;;;;5.43;2.38;;;;;;;-3.98;56.19;93920.88;2047006;70;20508;-85
2024/01/21 07:36:59;;;;;;;4.85;2.53;;;;;;;-3.98;55.88;93923.63;2047323;70;20155;-86
2024/01/21 07:39:25;;;;;;;8.13;3.95;;;;;;;-4.06;56.25;93928.06;2047791;70;20165;-74
2024/01/21 07:41:51;;;;;;;14.98;6.25;;;;;;;-4.10;56.40;93922.78;2047123;70;20155;-84
2024/01/21 07:44:16;;;;;;;18.27;7.38;;;;;;;-4.28;57.03;93928.59;2046514;70;20185;-78
2024/01/21 07:46:42;;;;;;;7.07;3.47;;;;;;;-4.36;56.25;93931.75;2047353;70;20227;-78
2024/01/21 07:49:08;;;;;;;9.15;3.58;;;;;;;-3.96;56.50;93943.91;2047049;70;20151;-76
2024/01/21 07:51:33;;;;;;;7.80;2.90;;;;;;;-4.01;56.90;93947.34;2048061;70;20149;-76
2024/01/21 07:53:59;;;;;;;7.43;3.10;;;;;;;-3.98;56.52;93949.16;2047201;70;20181;-76
2024/01/21 07:56:25;;;;;;;4.70;2.47;;;;;;;-3.85;56.51;93957.00;2046270;70;20147;-74
2024/01/21 07:58:51;;;;;;;7.30;3.58;;;;;;;-3.92;57.19;93954.69;2046297;70;20190;-75
2024/01/21 08:01:21;;;;;;;9.43;4.15;;;;;;;-3.96;56.81;93960.41;2046442;70;20158;-77
2024/01/21 08:03:47;;;;;;;10.15;4.38;;;;;;;-4.00;56.66;93957.13;2046568;70;20587;-77
2024/01/21 08:06:14;;;;;;;8.40;3.38;;;;;;;-4.02;56.69;93951.34;2046472;70;20146;-83
2024/01/21 08:08:40;;;;;;;8.55;3.33;;;;;;;-3.88;56.97;93950.47;2045331;70;20222;-77
2024/01/21 08:11:05;;;;;;;10.50;4.25;;;;;;;-3.83;57.16;93951.78;2044440;70;20594;-77
2024/01/21 08:13:31;;;;;;;10.10;4.38;;;;;;;-3.81;56.27;93940.28;2046090;70;20161;-76
2024/01/21 08:15:57;;;;;;;13.68;5.25;;;;;;;-3.69;55.66;93936.38;2045818;70;20147;-78
2024/01/21 08:18:24;;;;;;;9.65;5.03;;;;;;;-3.91;56.25;93940.44;2045137;70;20273;-83
2024/01/21 08:20:50;;;;;;;10.07;3.80;;;;;;;-4.01;56.36;93930.09;2044053;70;20162;-80
2024/01/21 08:23:16;;;;;;;7.20;3.60;;;;;;;-3.95;56.46;93936.41;2044112;70;20178;-81
2024/01/21 08:25:41;;;;;;;6.57;3.50;;;;;;;-3.67;56.17;93947.66;2044327;70;20171;-78
2024/01/21 08:28:07;;;;;;;5.68;2.85;;;;;;;-3.57;55.58;93949.00;2048010;70;20181;-81
2024/01/21 08:30:32;;;;;;;5.82;2.55;;;;;;;-3.43;55.77;93950.09;2046028;70;20214;-79
2024/01/21 08:32:58;;;;;;;4.95;2.60;;;;;;;-3.34;55.74;93949.91;2043673;70;20536;-78
2024/01/21 08:35:24;;;;;;;5.78;2.55;;;;;;;-3.35;56.14;93957.41;2044000;70;20154;-78
2024/01/21 08:37:49;;;;;;;11.55;3.50;;;;;;;-3.53;56.34;93955.00;2044096;70;20182;-80
2024/01/21 08:40:15;;;;;;;15.30;7.28;;;;;;;-3.60;56.41;93958.97;2044008;70;20546;-81
2024/01/21 08:42:42;;;;;;;12.65;6.07;;;;;;;-3.66;56.22;93955.44;2043790;70;20155;-77
2024/01/21 08:45:08;;;;;;;8.68;4.00;;;;;;;-3.36;56.09;93963.41;2043932;70;20229;-81
2024/01/21 08:47:34;;;;;;;12.90;4.60;;;;;;;-2.94;55.84;93954.41;2044883;70;20214;-77
2024/01/21 08:50:00;;;;;;;9.98;5.22;;;;;;;-2.60;55.41;93952.56;2045089;70;20545;-85
2024/01/21 08:52:25;;;;;;;11.13;5.20;;;;;;;-2.38;55.20;93934.59;2044976;70;20230;-79
2024/01/21 08:54:51;;;;;;;13.02;6.38;;;;;;;-1.92;54.42;93945.25;2044380;70;20147;-83
2024/01/21 08:57:17;;;;;;;12.13;5.43;;;;;;;-1.60;52.92;93943.00;2044419;70;20139;-78
2024/01/21 08:59:42;;;;;;;11.75;5.88;;;;;;;-1.15;54.68;93948.50;2045358;70;20244;-78
2024/01/21 09:02:08;;;;;;;11.30;6.15;;;;;;;-0.82;53.35;93947.69;2045697;70;20154;-77
2024/01/21 09:04:36;;;;;;;10.55;5.28;;;;;;;-0.76;51.76;93944.91;2045357;70;20146;-81
2024/01/21 09:07:01;;;;;;;8.77;3.97;;;;;;;-0.35;51.10;93947.78;2045383;70;20143;-79
2024/01/21 09:09:27;;;;;;;29.85;10.45;;;;;;;-0.02;51.06;93943.34;2045448;70;20151;-79
2024/01/21 09:11:54;;;;;;;9.32;4.28;;;;;;;0.16;49.77;93933.66;2044945;70;20178;-79
2024/01/21 09:14:22;;;;;;;6.68;3.03;;;;;;;0.11;50.13;93943.53;2044367;70;20586;-81
2024/01/21 09:16:49;;;;;;;7.95;4.05;;;;;;;0.36;49.09;93947.13;2044908;70;20218;-80
2024/01/21 09:19:14;;;;;;;8.00;4.35;;;;;;;0.79;48.64;93935.47;2045104;70;20595;-77
2024/01/21 09:21:40;;;;;;;19.80;8.57;;;;;;;0.93;49.10;93928.78;2042025;70;20139;-78
2024/01/21 09:24:07;;;;;;;13.57;6.60;;;;;;;1.17;50.22;93955.03;2045010;70;20175;-80
2024/01/21 09:26:33;;;;;;;15.57;7.00;;;;;;;1.31;50.63;93953.88;2044251;70;20173;-79
2024/01/21 09:29:00;;;;;;;13.80;5.70;;;;;;;1.20;48.37;93948.47;2045003;70;20182;-86
2024/01/21 09:31:26;;;;;;;12.75;6.28;;;;;;;1.38;48.57;93952.56;2044915;70;20155;-80
2024/01/21 09:33:51;;;;;;;15.85;8.45;;;;;;;1.73;47.59;93940.53;2045005;70;20489;-77
2024/01/21 09:36:17;;;;;;;7.90;4.03;;;;;;;2.13;47.23;93946.34;2046625;70;20621;-80
2024/01/21 09:38:42;;;;;;;6.82;4.18;;;;;;;2.31;45.80;93939.28;2044183;70;20172;-83
2024/01/21 09:41:32;;;;;;;7.50;4.20;;;;;;;2.56;45.82;93937.88;2044614;70;20182;-83
2024/01/21 09:43:58;;;;;;;9.30;3.35;;;;;;;2.46;43.92;93925.66;2044609;70;20600;-90
2024/01/21 09:46:25;;;;;;;5.43;2.50;;;;;;;2.67;44.55;93942.53;2044250;70;20147;-80
2024/01/21 09:48:52;;;;;;;9.35;3.78;;;;;;;2.68;43.65;93933.66;2045410;70;20135;-84
2024/01/21 09:51:20;;;;;;;17.52;8.20;;;;;;;2.55;46.09;93936.38;2045295;70;20154;-82
2024/01/21 09:53:50;;;;;;;23.05;9.02;;;;;;;2.72;46.18;93945.22;2045125;70;20170;-79
2024/01/21 09:56:17;;;;;;;23.75;12.18;;;;;;;3.34;45.46;93935.06;2045642;70;20505;-79
2024/01/21 09:58:48;;;;;;;29.33;11.95;;;;;;;3.74;45.57;93947.72;2045579;70;20213;-78
2024/01/21 10:01:16;;;;;;;31.83;14.55;;;;;;;3.89;45.85;93935.28;2045237;70;20614;-78
2024/01/21 10:03:41;;;;;;;27.55;13.10;;;;;;;3.89;44.11;93924.88;2045435;70;20147;-79
2024/01/21 10:06:07;;;;;;;21.15;11.25;;;;;;;3.87;44.85;93935.09;2044777;70;20139;-79
2024/01/21 10:08:37;;;;;;;18.30;9.68;;;;;;;4.32;44.20;93921.69;2044997;70;20167;-80
2024/01/21 10:11:03;;;;;;;16.45;8.60;;;;;;;4.20;43.12;93914.13;2045011;70;20237;-80
2024/01/21 10:13:39;;;;;;;9.40;5.22;;;;;;;4.62;42.19;93891.88;2047986;70;20150;-76
2024/01/21 10:16:06;;;;;;;12.70;5.85;;;;;;;4.74;41.70;93909.84;2049107;70;20155;-78
2024/01/21 10:18:32;;;;;;;8.82;5.10;;;;;;;5.14;40.81;93904.81;2045714;70;20131;-79
2024/01/21 10:20:58;;;;;;;9.90;3.50;;;;;;;5.39;40.92;93913.53;2045500;70;20524;-80
2024/01/21 10:23:24;;;;;;;15.95;6.72;;;;;;;4.69;42.17;93900.31;2041901;70;20143;-81
2024/01/21 10:25:50;;;;;;;15.90;5.93;;;;;;;4.87;43.06;93903.47;2045177;70;20182;-82
2024/01/21 10:28:17;;;;;;;19.30;6.75;;;;;;;5.17;43.06;93900.16;2045070;70;20147;-84
2024/01/21 10:30:46;;;;;;;25.13;9.00;;;;;;;5.49;42.21;93897.03;2045143;70;20139;-81
2024/01/21 10:33:13;;;;;;;26.35;8.27;;;;;;;5.23;42.47;93889.59;2044733;70;20174;-79
2024/01/21 10:35:40;;;;;;;33.58;11.55;;;;;;;5.91;41.23;93905.25;2044612;70;20167;-79
2024/01/21 10:38:13;;;;;;;21.88;6.70;;;;;;;6.15;41.88;93910.44;2045045;70;20146;-79
2024/01/21 10:40:43;;;;;;;17.65;6.57;;;;;;;6.62;41.54;93909.28;2044948;70;20159;-79
2024/01/21 10:43:16;;;;;;;16.48;5.90;;;;;;;6.23;40.63;93916.06;2044425;70;20234;-79
2024/01/21 10:45:44;;;;;;;16.33;6.63;;;;;;;6.83;41.00;93906.34;2044906;70;20139;-80
2024/01/21 10:48:13;;;;;;;17.90;5.72;;;;;;;7.52;40.69;93915.53;2045349;70;20158;-79
2024/01/21 10:50:43;;;;;;;18.80;6.32;;;;;;;7.90;39.86;93917.50;2045343;70;20157;-80
2024/01/21 10:53:12;;;;;;;18.48;6.43;;;;;;;7.60;39.50;93909.88;2045231;70;20209;-79
2024/01/21 10:55:41;;;;;;;13.48;5.82;;;;;;;7.36;38.95;93897.22;2044912;70;20147;-79
2024/01/21 10:58:08;;;;;;;17.83;7.32;;;;;;;8.38;38.46;93895.09;2044257;70;20640;-79
2024/01/21 11:00:39;;;;;;;13.85;7.28;;;;;;;8.94;37.83;93890.13;2044351;70;20150;-79
2024/01/21 11:03:25;;;;;;;12.95;6.60;;;;;;;8.94;37.97;93890.13;2045037;70;20131;-82
2024/01/21 11:05:59;;;;;;;16.63;7.63;;;;;;;8.82;36.38;93892.63;2044684;70;20147;-79
2024/01/21 11:08:26;;;;;;;10.38;4.45;;;;;;;8.04;38.09;93907.56;2044749;70;20206;-80
2024/01/21 11:11:12;;;;;;;8.35;4.28;;;;;;;8.01;38.32;93905.13;2044185;70;20139;-81
2024/01/21 11:13:46;;;;;;;12.20;4.38;;;;;;;9.84;35.88;93898.34;2044140;70;20615;-79
2024/01/21 11:16:33;;;;;;;9.25;5.80;;;;;;;11.05;35.13;93885.47;2044618;70;20197;-80
2024/01/21 11:19:06;;;;;;;12.35;5.40;;;;;;;11.37;33.28;93881.59;2044558;70;20250;-79
2024/01/21 11:21:36;;;;;;;11.60;6.38;;;;;;;11.45;33.36;93871.69;2044120;70;20158;-79
2024/01/21 11:24:04;;;;;;;13.73;6.35;;;;;;;11.68;32.95;93864.88;2044665;70;20171;-79
2024/01/21 11:26:32;;;;;;;14.88;7.38;;;;;;;11.84;31.68;93865.41;2044041;70;20607;-79
2024/01/21 11:28:59;;;;;;;19.02;10.43;;;;;;;11.51;31.69;93862.94;2044647;70;20158;-79